createdAt,value
2017-07-27T00:00:26.345Z,999.79
2017-07-27T00:01:27.723Z,999.82
2017-07-27T00:02:28.944Z,999.8
2017-07-27T00:03:30.173Z,999.82
2017-07-27T00:04:31.436Z,999.84
2017-07-27T00:05:32.675Z,999.84
2017-07-27T00:06:34.034Z,999.86
2017-07-27T00:07:35.289Z,999.84
2017-07-27T00:08:36.527Z,999.86
2017-07-27T00:09:37.757Z,999.87
2017-07-27T00:10:39.016Z,999.86
2017-07-27T00:11:40.257Z,999.87
2017-07-27T00:12:41.508Z,999.91
2017-07-27T00:13:42.750Z,999.89
2017-07-27T00:14:44.064Z,999.92
2017-07-27T00:15:45.301Z,999.92
2017-07-27T00:16:46.544Z,999.97
2017-07-27T00:17:47.786Z,999.95
2017-07-27T00:18:49.027Z,999.96
2017-07-27T00:19:50.299Z,999.94
2017-07-27T00:20:51.547Z,999.94
2017-07-27T00:21:52.866Z,999.98
2017-07-27T00:22:54.113Z,999.89
2017-07-27T00:23:55.357Z,999.86
2017-07-27T00:24:56.593Z,999.86
2017-07-27T00:25:58.108Z,999.89
2017-07-27T00:26:59.462Z,999.85
2017-07-27T00:28:00.702Z,999.8
2017-07-27T00:29:01.949Z,999.84
2017-07-27T00:30:03.186Z,999.86
2017-07-27T00:31:04.422Z,999.83
2017-07-27T00:32:05.768Z,999.88
2017-07-27T00:33:07.011Z,999.85
2017-07-27T00:34:08.247Z,999.88
2017-07-27T00:35:09.509Z,999.88
2017-07-27T00:36:10.719Z,999.87
2017-07-27T00:37:12.081Z,999.89
2017-07-27T00:38:13.406Z,999.87
2017-07-27T00:39:14.660Z,999.89
2017-07-27T00:40:15.895Z,999.9
2017-07-27T00:41:17.137Z,999.81
2017-07-27T00:42:18.396Z,999.85
2017-07-27T00:43:19.640Z,999.81
2017-07-27T00:44:20.852Z,999.83
2017-07-27T00:45:22.185Z,999.83
2017-07-27T00:46:23.420Z,999.8
2017-07-27T00:47:24.661Z,999.83
2017-07-27T00:48:25.893Z,999.77
2017-07-27T00:49:27.135Z,999.79
2017-07-27T00:50:28.369Z,999.79
2017-07-27T00:51:29.721Z,999.75
2017-07-27T00:52:30.971Z,999.73
2017-07-27T00:53:32.207Z,999.73
2017-07-27T00:54:33.466Z,999.75
2017-07-27T00:55:34.706Z,999.76
2017-07-27T00:56:35.964Z,999.74
2017-07-27T00:57:37.294Z,999.76
2017-07-27T00:58:38.533Z,999.74
2017-07-27T00:59:39.851Z,999.75
2017-07-27T01:00:41.119Z,999.76
2017-07-27T01:01:42.358Z,999.72
2017-07-27T01:02:43.627Z,999.76
2017-07-27T01:03:44.860Z,999.77
2017-07-27T01:04:46.095Z,999.8
2017-07-27T01:05:47.342Z,999.72
2017-07-27T01:06:48.584Z,999.76
2017-07-27T01:07:49.824Z,999.72
2017-07-27T01:08:51.067Z,999.69
2017-07-27T01:09:52.416Z,999.68
2017-07-27T01:10:53.671Z,999.7
2017-07-27T01:11:54.952Z,999.67
2017-07-27T01:12:56.187Z,999.63
2017-07-27T01:13:57.427Z,999.6
2017-07-27T01:14:58.665Z,999.6
2017-07-27T01:15:59.918Z,999.62
2017-07-27T01:17:01.257Z,999.59
2017-07-27T01:18:02.536Z,999.58
2017-07-27T01:19:03.753Z,999.58
2017-07-27T01:20:05.002Z,999.56
2017-07-27T01:21:06.272Z,999.58
2017-07-27T01:22:07.641Z,999.57
2017-07-27T01:23:08.943Z,999.56
2017-07-27T01:24:10.166Z,999.59
2017-07-27T01:25:11.419Z,999.57
2017-07-27T01:26:12.658Z,999.56
2017-07-27T01:27:13.905Z,999.54
2017-07-27T01:28:15.153Z,999.5
2017-07-27T01:29:16.385Z,999.51
2017-07-27T01:30:17.716Z,999.5
2017-07-27T01:31:18.997Z,999.49
2017-07-27T01:32:20.233Z,999.5
2017-07-27T01:33:21.485Z,999.43
2017-07-27T01:34:22.703Z,999.45
2017-07-27T01:35:23.986Z,999.48
2017-07-27T01:36:25.269Z,999.49
2017-07-27T01:37:26.528Z,999.47
2017-07-27T01:38:27.765Z,999.51
2017-07-27T01:39:29.008Z,999.51
2017-07-27T01:40:30.335Z,999.46
2017-07-27T01:41:31.582Z,999.5
2017-07-27T01:42:32.819Z,999.46
2017-07-27T01:43:34.079Z,999.49
2017-07-27T01:44:35.447Z,999.48
2017-07-27T01:45:36.691Z,999.43
2017-07-27T01:46:37.938Z,999.42
2017-07-27T01:47:39.190Z,999.43
2017-07-27T01:48:40.467Z,999.38
2017-07-27T01:49:41.834Z,999.37
2017-07-27T01:50:43.081Z,999.35
2017-07-27T01:51:44.335Z,999.37
2017-07-27T01:52:45.571Z,999.36
2017-07-27T01:53:46.810Z,999.35
2017-07-27T01:54:48.139Z,999.35
2017-07-27T01:55:49.379Z,999.3
2017-07-27T01:56:50.617Z,999.3
2017-07-27T01:57:51.877Z,999.31
2017-07-27T01:58:53.093Z,999.3
2017-07-27T01:59:54.346Z,999.29
2017-07-27T02:00:55.599Z,999.34
2017-07-27T02:01:56.899Z,999.33
2017-07-27T02:02:58.137Z,999.29
2017-07-27T02:03:59.372Z,999.28
2017-07-27T02:05:00.614Z,999.26
2017-07-27T02:06:01.862Z,999.21
2017-07-27T02:07:03.110Z,999.22
2017-07-27T02:08:04.330Z,999.22
2017-07-27T02:09:05.654Z,999.22
2017-07-27T02:10:06.899Z,999.23
2017-07-27T02:11:08.134Z,999.22
2017-07-27T02:12:09.373Z,999.26
2017-07-27T02:13:10.610Z,999.23
2017-07-27T02:14:11.911Z,999.25
2017-07-27T02:15:13.155Z,999.22
2017-07-27T02:16:14.389Z,999.22
2017-07-27T02:17:15.645Z,999.26
2017-07-27T02:18:16.869Z,999.24
2017-07-27T02:19:18.125Z,999.25
2017-07-27T02:20:19.441Z,999.26
2017-07-27T02:21:20.703Z,999.26
2017-07-27T02:22:21.925Z,999.25
2017-07-27T02:23:23.262Z,999.22
2017-07-27T02:24:24.501Z,999.24
2017-07-27T02:25:25.742Z,999.29
2017-07-27T02:26:26.979Z,999.25
2017-07-27T02:27:28.218Z,999.3
2017-07-27T02:28:29.511Z,999.26
2017-07-27T02:29:30.769Z,999.19
2017-07-27T02:30:31.995Z,999.19
2017-07-27T02:31:33.256Z,999.15
2017-07-27T02:32:34.490Z,999.19
2017-07-27T02:33:35.722Z,999.2
2017-07-27T02:34:36.966Z,999.18
2017-07-27T02:35:38.206Z,999.2
2017-07-27T02:36:39.434Z,999.19
2017-07-27T02:37:40.673Z,999.2
2017-07-27T02:38:41.901Z,999.21
2017-07-27T02:39:43.269Z,999.18
2017-07-27T02:40:44.524Z,999.18
2017-07-27T02:41:45.807Z,999.16
2017-07-27T02:42:47.034Z,999.1
2017-07-27T02:43:48.289Z,999.11
2017-07-27T02:44:49.566Z,999.1
2017-07-27T02:45:50.765Z,999.08
2017-07-27T02:46:52.102Z,999.09
2017-07-27T02:47:53.365Z,999.06
2017-07-27T02:48:54.574Z,999.04
2017-07-27T02:49:55.807Z,998.99
2017-07-27T02:50:57.048Z,999.03
2017-07-27T02:51:58.287Z,999.03
2017-07-27T02:52:59.576Z,999.03
2017-07-27T02:54:00.869Z,999.04
2017-07-27T02:55:02.114Z,999.06
2017-07-27T02:56:03.383Z,999.06
2017-07-27T02:57:04.582Z,999.03
2017-07-27T02:58:05.877Z,999.03
2017-07-27T02:59:07.214Z,998.99
2017-07-27T03:00:08.463Z,998.98
2017-07-27T03:01:09.704Z,999
2017-07-27T03:02:10.948Z,998.99
2017-07-27T03:03:12.188Z,998.94
2017-07-27T03:04:13.568Z,998.97
2017-07-27T03:05:14.706Z,998.94
2017-07-27T03:06:16.035Z,998.98
2017-07-27T03:07:17.272Z,998.94
2017-07-27T03:08:18.522Z,998.91
2017-07-27T03:09:19.790Z,998.91
2017-07-27T03:10:21.030Z,998.91
2017-07-27T03:11:22.280Z,998.98
2017-07-27T03:12:23.620Z,998.9
2017-07-27T03:13:24.865Z,998.91
2017-07-27T03:14:26.103Z,998.88
2017-07-27T03:15:27.351Z,998.92
2017-07-27T03:16:28.593Z,998.94
2017-07-27T03:17:29.843Z,998.94
2017-07-27T03:18:31.102Z,998.93
2017-07-27T03:19:32.331Z,998.94
2017-07-27T03:20:33.578Z,998.94
2017-07-27T03:21:34.813Z,998.93
2017-07-27T03:22:36.050Z,998.93
2017-07-27T03:23:37.286Z,998.87
2017-07-27T03:24:38.598Z,998.91
2017-07-27T03:25:39.857Z,998.83
2017-07-27T03:26:41.098Z,998.84
2017-07-27T03:27:42.362Z,998.85
2017-07-27T03:28:43.582Z,998.82
2017-07-27T03:29:44.824Z,998.82
2017-07-27T03:30:46.076Z,998.77
2017-07-27T03:31:47.305Z,998.76
2017-07-27T03:32:48.540Z,998.77
2017-07-27T03:33:49.777Z,998.77
2017-07-27T03:34:51.016Z,998.78
2017-07-27T03:35:52.252Z,998.75
2017-07-27T03:36:53.514Z,998.71
2017-07-27T03:37:54.764Z,998.72
2017-07-27T03:38:56.080Z,998.68
2017-07-27T03:39:57.323Z,998.62
2017-07-27T03:40:58.563Z,998.6
2017-07-27T03:41:59.801Z,998.6
2017-07-27T03:43:01.049Z,998.52
2017-07-27T03:44:02.320Z,998.59
2017-07-27T03:45:03.628Z,998.58
2017-07-27T03:46:04.867Z,998.61
2017-07-27T03:47:06.105Z,998.63
2017-07-27T03:48:07.345Z,998.67
2017-07-27T03:49:08.585Z,998.7
2017-07-27T03:50:09.866Z,998.73
2017-07-27T03:51:11.180Z,998.7
2017-07-27T03:52:12.355Z,998.69
2017-07-27T03:53:13.686Z,998.7
2017-07-27T03:54:14.920Z,998.71
2017-07-27T03:55:16.179Z,998.77
2017-07-27T03:56:17.428Z,998.8
2017-07-27T03:57:18.650Z,998.85
2017-07-27T03:58:19.897Z,998.83
2017-07-27T03:59:21.148Z,998.85
2017-07-27T04:00:22.389Z,998.85
2017-07-27T04:01:23.631Z,998.82
2017-07-27T04:02:24.864Z,998.84
2017-07-27T04:03:26.150Z,998.87
2017-07-27T04:04:27.422Z,998.89
2017-07-27T04:05:28.681Z,998.85
2017-07-27T04:06:29.942Z,998.86
2017-07-27T04:07:31.188Z,998.87
2017-07-27T04:08:32.428Z,998.87
2017-07-27T04:09:33.681Z,998.87
2017-07-27T04:10:34.917Z,998.83
2017-07-27T04:11:36.155Z,998.78
2017-07-27T04:12:37.401Z,998.76
2017-07-27T04:13:38.631Z,998.77
2017-07-27T04:14:39.878Z,998.73
2017-07-27T04:15:41.109Z,998.76
2017-07-27T04:16:42.347Z,998.77
2017-07-27T04:17:43.612Z,998.72
2017-07-27T04:18:44.879Z,998.68
2017-07-27T04:19:46.117Z,998.65
2017-07-27T04:20:47.346Z,998.64
2017-07-27T04:21:48.580Z,998.66
2017-07-27T04:22:49.818Z,998.67
2017-07-27T04:23:51.054Z,998.65
2017-07-27T04:24:52.323Z,998.67
2017-07-27T04:25:53.611Z,998.7
2017-07-27T04:26:54.879Z,998.72
2017-07-27T04:27:56.111Z,998.74
2017-07-27T04:28:57.348Z,998.76
2017-07-27T04:29:58.706Z,998.79
2017-07-27T04:30:59.945Z,998.79
2017-07-27T04:32:01.307Z,998.77
2017-07-27T04:33:02.548Z,998.81
2017-07-27T04:34:03.783Z,998.81
2017-07-27T04:35:05.022Z,998.8
2017-07-27T04:36:06.264Z,998.81
2017-07-27T04:37:07.501Z,998.84
2017-07-27T04:38:08.728Z,998.85
2017-07-27T04:39:09.971Z,998.81
2017-07-27T04:40:11.230Z,998.85
2017-07-27T04:41:12.447Z,998.84
2017-07-27T04:42:13.688Z,998.83
2017-07-27T04:43:14.931Z,998.87
2017-07-27T04:44:16.198Z,998.87
2017-07-27T04:45:17.426Z,998.87
2017-07-27T04:46:18.662Z,998.87
2017-07-27T04:47:19.895Z,998.85
2017-07-27T04:48:21.132Z,998.84
2017-07-27T04:49:22.388Z,998.85
2017-07-27T04:50:23.600Z,998.78
2017-07-27T04:51:24.946Z,998.77
2017-07-27T04:52:26.075Z,998.75
2017-07-27T04:53:27.329Z,998.77
2017-07-27T04:54:28.566Z,998.78
2017-07-27T04:55:29.805Z,998.74
2017-07-27T04:56:31.045Z,998.71
2017-07-27T04:57:32.304Z,998.72
2017-07-27T04:58:33.621Z,998.69
2017-07-27T04:59:34.874Z,998.68
2017-07-27T05:00:36.114Z,998.69
2017-07-27T05:01:37.369Z,998.68
2017-07-27T05:02:38.659Z,998.66
2017-07-27T05:03:39.941Z,998.64
2017-07-27T05:04:41.171Z,998.68
2017-07-27T05:05:42.406Z,998.64
2017-07-27T05:06:43.644Z,998.63
2017-07-27T05:07:44.887Z,998.62
2017-07-27T05:08:46.135Z,998.66
2017-07-27T05:09:47.400Z,998.61
2017-07-27T05:10:48.634Z,998.63
2017-07-27T05:11:49.880Z,998.61
2017-07-27T05:12:51.139Z,998.7
2017-07-27T05:13:52.376Z,998.75
2017-07-27T05:14:53.614Z,998.78
2017-07-27T05:15:54.856Z,998.83
2017-07-27T05:16:56.125Z,998.83
2017-07-27T05:17:57.359Z,998.87
2017-07-27T05:18:58.601Z,998.87
2017-07-27T05:19:59.871Z,998.94
2017-07-27T05:21:01.097Z,998.96
2017-07-27T05:22:02.336Z,998.97
2017-07-27T05:23:03.685Z,999.03
2017-07-27T05:24:04.972Z,999.01
2017-07-27T05:25:06.187Z,998.97
2017-07-27T05:26:07.440Z,998.98
2017-07-27T05:27:08.687Z,998.86
2017-07-27T05:28:09.946Z,998.84
2017-07-27T05:29:11.184Z,998.89
2017-07-27T05:30:12.524Z,999.01
2017-07-27T05:31:13.863Z,998.83
2017-07-27T05:32:15.215Z,998.85
2017-07-27T05:33:16.491Z,998.85
2017-07-27T05:34:17.742Z,998.88
2017-07-27T05:35:18.991Z,998.92
2017-07-27T05:36:20.244Z,998.94
2017-07-27T05:37:21.512Z,998.92
2017-07-27T05:38:22.746Z,999.01
2017-07-27T05:39:23.985Z,998.96
2017-07-27T05:40:25.218Z,999.02
2017-07-27T05:41:26.502Z,998.96
2017-07-27T05:42:27.791Z,998.96
2017-07-27T05:43:29.047Z,998.92
2017-07-27T05:44:30.279Z,998.97
2017-07-27T05:45:31.528Z,999.08
2017-07-27T05:46:32.793Z,999
2017-07-27T05:47:34.018Z,999.02
2017-07-27T05:48:35.279Z,998.97
2017-07-27T05:49:36.520Z,998.97
2017-07-27T05:50:37.880Z,999
2017-07-27T05:51:39.104Z,998.95
2017-07-27T05:52:40.353Z,998.93
2017-07-27T05:53:41.737Z,998.92
2017-07-27T05:54:42.969Z,998.89
2017-07-27T05:55:44.258Z,998.91
2017-07-27T05:56:45.509Z,998.94
2017-07-27T05:57:46.756Z,998.93
2017-07-27T05:58:47.987Z,998.89
2017-07-27T05:59:49.232Z,998.95
2017-07-27T06:00:50.474Z,998.92
2017-07-27T06:01:51.738Z,999.02
2017-07-27T06:02:52.957Z,998.99
2017-07-27T06:03:54.215Z,999.01
2017-07-27T06:04:55.432Z,998.95
2017-07-27T06:05:56.672Z,998.88
2017-07-27T06:06:57.995Z,998.89
2017-07-27T06:07:59.238Z,998.9
2017-07-27T06:09:00.470Z,998.9
2017-07-27T06:10:01.706Z,998.95
2017-07-27T06:11:02.955Z,998.97
2017-07-27T06:12:04.198Z,998.99
2017-07-27T06:13:05.543Z,999.02
2017-07-27T06:14:06.683Z,999.03
2017-07-27T06:15:08.032Z,999.01
2017-07-27T06:16:09.305Z,999.11
2017-07-27T06:17:10.542Z,999.18
2017-07-27T06:18:11.788Z,999.18
2017-07-27T06:19:13.038Z,999.15
2017-07-27T06:20:14.285Z,999.08
2017-07-27T06:21:15.637Z,999.12
2017-07-27T06:22:16.953Z,999.17
2017-07-27T06:23:18.202Z,999.19
2017-07-27T06:24:19.451Z,999.16
2017-07-27T06:25:20.725Z,999.2
2017-07-27T06:26:21.997Z,999.25
2017-07-27T06:27:23.244Z,999.33
2017-07-27T06:28:24.506Z,999.41
2017-07-27T06:29:25.738Z,999.42
2017-07-27T06:30:26.979Z,999.42
2017-07-27T06:31:28.250Z,999.44
2017-07-27T06:32:29.507Z,999.46
2017-07-27T06:33:30.745Z,999.43
2017-07-27T06:34:32.115Z,999.46
2017-07-27T06:35:33.397Z,999.53
2017-07-27T06:36:34.633Z,999.56
2017-07-27T06:37:35.872Z,999.54
2017-07-27T06:38:37.159Z,999.55
2017-07-27T06:39:38.420Z,999.49
2017-07-27T06:40:39.757Z,999.62
2017-07-27T06:41:40.991Z,999.68
2017-07-27T06:42:42.227Z,999.66
2017-07-27T06:43:43.512Z,999.56
2017-07-27T06:44:44.746Z,999.52
2017-07-27T06:45:45.982Z,999.5
2017-07-27T06:46:47.254Z,999.6
2017-07-27T06:47:48.531Z,999.66
2017-07-27T06:48:49.762Z,999.83
2017-07-27T06:49:50.989Z,999.48
2017-07-27T06:50:52.321Z,999.41
2017-07-27T06:51:53.570Z,999.46
2017-07-27T06:52:54.832Z,999.42
2017-07-27T06:53:56.048Z,999.36
2017-07-27T06:54:57.284Z,999.28
2017-07-27T06:55:58.537Z,999.33
2017-07-27T06:56:59.794Z,999.33
2017-07-27T06:58:01.032Z,999.33
2017-07-27T06:59:02.314Z,999.35
2017-07-27T07:00:03.573Z,999.36
2017-07-27T07:01:04.824Z,999.34
2017-07-27T07:02:06.091Z,999.28
2017-07-27T07:03:07.318Z,999.33
2017-07-27T07:04:08.575Z,999.33
2017-07-27T07:05:09.872Z,999.32
2017-07-27T07:06:11.210Z,999.36
2017-07-27T07:07:12.464Z,999.34
2017-07-27T07:08:13.727Z,999.37
2017-07-27T07:09:14.973Z,999.42
2017-07-27T07:10:16.319Z,999.47
2017-07-27T07:11:17.557Z,999.47
2017-07-27T07:12:18.897Z,999.41
2017-07-27T07:13:20.128Z,999.41
2017-07-27T07:14:21.489Z,999.52
2017-07-27T07:15:22.743Z,999.61
2017-07-27T07:16:24.015Z,999.6
2017-07-27T07:17:25.289Z,999.63
2017-07-27T07:18:26.517Z,999.65
2017-07-27T07:19:27.751Z,999.61
2017-07-27T07:20:29.001Z,999.7
2017-07-27T07:21:30.230Z,999.59
2017-07-27T07:22:31.473Z,999.64
2017-07-27T07:23:32.722Z,999.59
2017-07-27T07:24:33.997Z,999.54
2017-07-27T07:25:35.270Z,999.61
2017-07-27T07:26:36.529Z,999.54
2017-07-27T07:27:37.767Z,999.6
2017-07-27T07:28:39.016Z,999.6
2017-07-27T07:29:40.267Z,999.58
2017-07-27T07:30:41.511Z,999.65
2017-07-27T07:31:42.792Z,999.69
2017-07-27T07:32:44.018Z,999.66
2017-07-27T07:33:45.259Z,999.78
2017-07-27T07:34:46.553Z,999.8
2017-07-27T07:35:47.799Z,999.81
2017-07-27T07:36:49.178Z,999.78
2017-07-27T07:37:50.333Z,999.78
2017-07-27T07:38:51.594Z,999.74
2017-07-27T07:39:52.837Z,999.71
2017-07-27T07:40:54.101Z,999.75
2017-07-27T07:41:55.340Z,999.77
2017-07-27T07:42:56.582Z,999.82
2017-07-27T07:43:57.822Z,999.72
2017-07-27T07:44:59.068Z,999.73
2017-07-27T07:46:00.329Z,999.72
2017-07-27T07:47:01.570Z,999.66
2017-07-27T07:48:02.811Z,999.67
2017-07-27T07:49:04.101Z,999.63
2017-07-27T07:50:05.403Z,999.71
2017-07-27T07:51:06.614Z,999.72
2017-07-27T07:52:07.863Z,999.72
2017-07-27T07:53:09.112Z,999.71
2017-07-27T07:54:10.403Z,999.77
2017-07-27T07:55:11.712Z,999.78
2017-07-27T07:56:12.970Z,999.77
2017-07-27T07:57:14.197Z,999.74
2017-07-27T07:58:15.460Z,999.7
2017-07-27T07:59:16.698Z,999.7
2017-07-27T08:00:17.945Z,999.73
2017-07-27T08:01:19.193Z,999.74
2017-07-27T08:02:20.453Z,999.76
2017-07-27T08:03:21.730Z,999.74
2017-07-27T08:04:23.035Z,999.74
2017-07-27T08:05:24.289Z,999.76
2017-07-27T08:06:25.532Z,999.74
2017-07-27T08:07:26.790Z,999.73
2017-07-27T08:08:28.093Z,999.76
2017-07-27T08:09:29.355Z,999.79
2017-07-27T08:10:30.642Z,999.77
2017-07-27T08:11:31.871Z,999.8
2017-07-27T08:12:33.113Z,999.8
2017-07-27T08:13:34.453Z,999.75
2017-07-27T08:14:35.704Z,999.81
2017-07-27T08:15:37.088Z,999.75
2017-07-27T08:16:38.228Z,999.75
2017-07-27T08:17:39.491Z,999.73
2017-07-27T08:18:40.726Z,999.73
2017-07-27T08:19:41.981Z,999.74
2017-07-27T08:20:43.214Z,999.76
2017-07-27T08:21:44.467Z,999.85
2017-07-27T08:22:45.763Z,999.86
2017-07-27T08:23:47.006Z,999.88
2017-07-27T08:24:48.240Z,999.89
2017-07-27T08:25:49.494Z,1000.25
2017-07-27T08:26:50.844Z,999.83
2017-07-27T08:27:52.079Z,999.95
2017-07-27T08:28:53.352Z,1000.48
2017-07-27T08:29:54.601Z,1000.65
2017-07-27T08:30:55.840Z,1000.45
2017-07-27T08:31:57.085Z,999.98
2017-07-27T08:32:58.336Z,999.93
2017-07-27T08:33:59.683Z,999.95
2017-07-27T08:35:01.050Z,999.91
2017-07-27T08:36:02.284Z,1000
2017-07-27T08:37:03.530Z,1000.2
2017-07-27T08:38:04.784Z,1000.32
2017-07-27T08:39:06.079Z,1000.16
2017-07-27T08:40:07.377Z,1000.12
2017-07-27T08:41:08.631Z,999.87
2017-07-27T08:42:09.879Z,1000.05
2017-07-27T08:43:11.119Z,999.86
2017-07-27T08:44:12.381Z,999.85
2017-07-27T08:45:13.709Z,1000.09
2017-07-27T08:46:14.953Z,1000.02
2017-07-27T08:47:16.297Z,999.88
2017-07-27T08:48:17.577Z,999.87
2017-07-27T08:49:18.821Z,999.8
2017-07-27T08:50:20.074Z,999.77
2017-07-27T08:51:21.325Z,999.98
2017-07-27T08:52:22.586Z,999.94
2017-07-27T08:53:23.883Z,999.73
2017-07-27T08:54:25.220Z,999.73
2017-07-27T08:55:26.466Z,999.63
2017-07-27T08:56:27.717Z,999.51
2017-07-27T08:57:28.971Z,999.47
2017-07-27T08:58:30.345Z,999.42
2017-07-27T08:59:31.563Z,999.43
2017-07-27T09:00:32.814Z,999.43
2017-07-27T09:01:34.059Z,999.49
2017-07-27T09:02:35.308Z,999.46
2017-07-27T09:03:36.555Z,999.54
2017-07-27T09:04:37.850Z,999.57
2017-07-27T09:05:39.135Z,999.51
2017-07-27T09:06:40.384Z,999.51
2017-07-27T09:07:41.680Z,999.52
2017-07-27T09:08:42.924Z,999.44
2017-07-27T09:09:44.209Z,999.46
2017-07-27T09:10:45.459Z,999.54
2017-07-27T09:11:46.699Z,999.67
2017-07-27T09:12:47.983Z,999.95
2017-07-27T09:13:49.203Z,999.99
2017-07-27T09:14:50.451Z,1000.24
2017-07-27T09:15:51.727Z,1000.48
2017-07-27T09:16:52.947Z,1000.3
2017-07-27T09:17:54.339Z,1000.73
2017-07-27T09:18:55.580Z,1000.29
2017-07-27T09:19:56.836Z,1000.4
2017-07-27T09:20:58.081Z,1001.13
2017-07-27T09:21:59.340Z,1000.23
2017-07-27T09:23:00.598Z,1001.41
2017-07-27T09:24:01.941Z,1000.84
2017-07-27T09:25:03.198Z,1001.05
2017-07-27T09:26:04.446Z,1000.03
2017-07-27T09:27:05.685Z,999.81
2017-07-27T09:28:06.943Z,1000.84
2017-07-27T09:29:08.293Z,1000.96
2017-07-27T09:30:09.557Z,1001.56
2017-07-27T09:31:10.795Z,1001.48
2017-07-27T09:32:12.030Z,999.92
2017-07-27T09:33:13.285Z,1002.28
2017-07-27T09:34:14.534Z,1002.27
2017-07-27T09:35:15.875Z,1002.42
2017-07-27T09:36:17.190Z,1002.49
2017-07-27T09:37:18.435Z,1002.51
2017-07-27T09:38:19.684Z,1000.32
2017-07-27T09:39:20.936Z,1002.94
2017-07-27T09:40:22.183Z,1002.95
2017-07-27T09:41:23.523Z,1002.9
2017-07-27T09:42:24.776Z,1002.24
2017-07-27T09:43:26.120Z,1002.64
2017-07-27T09:44:27.399Z,1001.52
2017-07-27T09:45:28.656Z,1003.1
2017-07-27T09:46:29.986Z,1002.97
2017-07-27T09:47:31.379Z,999.79
2017-07-27T09:48:32.635Z,1003.41
2017-07-27T09:49:33.866Z,1003.36
2017-07-27T09:50:35.103Z,1003.46
2017-07-27T09:51:36.352Z,1003.52
2017-07-27T09:52:37.621Z,1003.7
2017-07-27T09:53:38.856Z,1003.49
2017-07-27T09:54:40.151Z,1003.87
2017-07-27T09:55:41.468Z,1003.25
2017-07-27T09:56:42.726Z,1003.6
2017-07-27T09:57:43.966Z,1003.42
2017-07-27T09:58:45.215Z,1002.14
2017-07-27T09:59:46.504Z,1003.45
2017-07-27T10:00:47.787Z,1003.39
2017-07-27T10:01:49.042Z,1001.33
2017-07-27T10:02:50.305Z,1002.47
2017-07-27T10:03:51.540Z,1002.39
2017-07-27T10:04:52.803Z,1002.27
2017-07-27T10:05:54.152Z,1000.06
2017-07-27T10:06:55.429Z,999.69
2017-07-27T10:07:56.679Z,999.67
2017-07-27T10:08:57.929Z,999.63
2017-07-27T10:09:59.176Z,999.59
2017-07-27T10:11:00.433Z,999.63
2017-07-27T10:12:01.674Z,999.59
2017-07-27T10:13:02.933Z,999.76
2017-07-27T10:14:04.213Z,1000.17
2017-07-27T10:15:05.497Z,999.7
2017-07-27T10:16:06.740Z,999.61
2017-07-27T10:17:07.996Z,999.62
2017-07-27T10:18:09.239Z,1000.2
2017-07-27T10:19:10.506Z,1000.2
2017-07-27T10:20:11.795Z,999.89
2017-07-27T10:21:13.039Z,999.74
2017-07-27T10:22:14.284Z,999.71
2017-07-27T10:23:15.532Z,999.97
2017-07-27T10:24:16.812Z,1000.03
2017-07-27T10:25:18.062Z,999.87
2017-07-27T10:26:19.351Z,999.79
2017-07-27T10:27:20.584Z,1000.01
2017-07-27T10:28:21.839Z,999.95
2017-07-27T10:29:23.092Z,999.99
2017-07-27T10:30:24.359Z,999.97
2017-07-27T10:31:25.626Z,999.85
2017-07-27T10:32:26.875Z,999.81
2017-07-27T10:33:28.238Z,999.84
2017-07-27T10:34:29.543Z,999.83
2017-07-27T10:35:30.794Z,999.86
2017-07-27T10:36:32.070Z,999.85
2017-07-27T10:37:33.419Z,1000.04
2017-07-27T10:38:34.667Z,999.96
2017-07-27T10:39:35.922Z,999.92
2017-07-27T10:40:37.174Z,999.8
2017-07-27T10:41:38.450Z,999.8
2017-07-27T10:42:39.759Z,999.8
2017-07-27T10:43:40.954Z,999.89
2017-07-27T10:44:42.213Z,999.54
2017-07-27T10:45:43.463Z,999.58
2017-07-27T10:46:44.710Z,999.63
2017-07-27T10:47:45.974Z,999.6
2017-07-27T10:48:47.231Z,999.75
2017-07-27T10:49:48.601Z,999.78
2017-07-27T10:50:49.900Z,999.78
2017-07-27T10:51:51.130Z,999.87
2017-07-27T10:52:52.373Z,999.83
2017-07-27T10:53:53.647Z,999.88
2017-07-27T10:54:54.935Z,999.73
2017-07-27T10:55:56.148Z,999.74
2017-07-27T10:56:57.386Z,999.74
2017-07-27T10:57:58.628Z,999.76
2017-07-27T10:58:59.861Z,999.88
2017-07-27T11:00:01.118Z,999.89
2017-07-27T11:01:02.450Z,999.92
2017-07-27T11:02:03.698Z,999.87
2017-07-27T11:03:04.959Z,999.75
2017-07-27T11:04:06.201Z,999.77
2017-07-27T11:05:07.457Z,999.74
2017-07-27T11:06:08.696Z,999.61
2017-07-27T11:07:09.942Z,999.7
2017-07-27T11:08:11.182Z,999.67
2017-07-27T11:09:12.426Z,999.68
2017-07-27T11:10:13.673Z,999.78
2017-07-27T11:11:14.924Z,999.71
2017-07-27T11:12:16.178Z,999.69
2017-07-27T11:13:17.403Z,999.72
2017-07-27T11:14:18.660Z,999.8
2017-07-27T11:15:19.948Z,999.82
2017-07-27T11:16:21.205Z,999.85
2017-07-27T11:17:22.446Z,999.83
2017-07-27T11:18:23.693Z,999.88
2017-07-27T11:19:24.932Z,999.94
2017-07-27T11:20:26.199Z,999.98
2017-07-27T11:21:27.533Z,999.92
2017-07-27T11:22:28.717Z,999.9
2017-07-27T11:23:30.058Z,999.97
2017-07-27T11:24:31.325Z,999.97
2017-07-27T11:25:32.562Z,999.96
2017-07-27T11:26:33.840Z,999.88
2017-07-27T11:27:35.073Z,999.94
2017-07-27T11:28:36.380Z,999.95
2017-07-27T11:29:37.624Z,999.99
2017-07-27T11:30:38.871Z,1000.01
2017-07-27T11:31:40.114Z,1000
2017-07-27T11:32:41.352Z,1000.03
2017-07-27T11:33:42.638Z,999.95
2017-07-27T11:34:43.989Z,999.95
2017-07-27T11:35:45.239Z,999.99
2017-07-27T11:36:46.486Z,999.93
2017-07-27T11:37:47.730Z,999.91
2017-07-27T11:38:48.972Z,999.85
2017-07-27T11:39:50.237Z,999.78
2017-07-27T11:40:51.520Z,999.73
2017-07-27T11:41:52.804Z,999.73
2017-07-27T11:42:54.048Z,999.76
2017-07-27T11:43:55.300Z,999.77
2017-07-27T11:44:56.555Z,999.79
2017-07-27T11:45:57.889Z,999.78
2017-07-27T11:46:59.168Z,999.86
2017-07-27T11:48:00.395Z,999.86
2017-07-27T11:49:01.636Z,999.91
2017-07-27T11:50:02.885Z,999.79
2017-07-27T11:51:04.122Z,999.91
2017-07-27T11:52:05.371Z,999.87
2017-07-27T11:53:06.629Z,999.83
2017-07-27T11:54:07.947Z,999.82
2017-07-27T11:55:09.208Z,999.85
2017-07-27T11:56:10.449Z,999.99
2017-07-27T11:57:11.686Z,999.95
2017-07-27T11:58:12.978Z,999.9
2017-07-27T11:59:14.224Z,999.92
2017-07-27T12:00:15.499Z,1000.01
2017-07-27T12:01:16.760Z,1000.01
2017-07-27T12:02:17.993Z,999.99
2017-07-27T12:03:19.236Z,1000.01
2017-07-27T12:04:20.533Z,999.96
2017-07-27T12:05:21.782Z,999.87
2017-07-27T12:06:23.028Z,999.87
2017-07-27T12:07:24.301Z,999.8
2017-07-27T12:08:25.637Z,999.81
2017-07-27T12:09:26.896Z,999.74
2017-07-27T12:10:28.134Z,999.75
2017-07-27T12:11:29.383Z,999.82
2017-07-27T12:12:30.744Z,999.8
2017-07-27T12:13:31.991Z,999.78
2017-07-27T12:14:33.260Z,999.78
2017-07-27T12:15:34.491Z,999.78
2017-07-27T12:16:35.735Z,999.84
2017-07-27T12:17:36.967Z,999.77
2017-07-27T12:18:38.247Z,999.76
2017-07-27T12:19:39.495Z,999.83
2017-07-27T12:20:40.738Z,999.83
2017-07-27T12:21:41.988Z,999.88
2017-07-27T12:22:43.244Z,999.87
2017-07-27T12:23:44.574Z,999.86
2017-07-27T12:24:45.844Z,999.87
2017-07-27T12:25:47.097Z,999.86
2017-07-27T12:26:48.342Z,999.83
2017-07-27T12:27:49.612Z,999.78
2017-07-27T12:28:50.847Z,999.73
2017-07-27T12:29:52.271Z,999.76
2017-07-27T12:30:53.508Z,999.8
2017-07-27T12:31:54.755Z,999.9
2017-07-27T12:32:56.004Z,999.92
2017-07-27T12:33:57.252Z,999.98
2017-07-27T12:34:58.517Z,999.96
2017-07-27T12:35:59.788Z,999.99
2017-07-27T12:37:01.019Z,1000.01
2017-07-27T12:38:02.335Z,1000.02
2017-07-27T12:39:03.607Z,1000.01
2017-07-27T12:40:04.849Z,999.98
2017-07-27T12:41:06.089Z,999.97
2017-07-27T12:42:07.340Z,999.97
2017-07-27T12:43:08.623Z,999.99
2017-07-27T12:44:10.054Z,999.94